createdAt,value
2022-08-02T00:00:35.025Z,92.36
2022-08-02T00:03:01.930Z,93.08
2022-08-02T00:05:28.928Z,93.60
2022-08-02T00:07:55.779Z,94.58
2022-08-02T00:10:22.500Z,94.44
2022-08-02T00:12:49.573Z,94.39
2022-08-02T00:15:16.648Z,94.21
2022-08-02T00:17:44.536Z,95.52
2022-08-02T00:20:13.601Z,95.55
2022-08-02T00:22:40.504Z,95.95
2022-08-02T00:25:07.746Z,96.96
2022-08-02T00:27:34.685Z,99.00
2022-08-02T00:30:01.665Z,100.00
2022-08-02T00:32:28.684Z,100.00
2022-08-02T00:34:55.548Z,100.00
2022-08-02T00:37:22.390Z,100.00
2022-08-02T00:39:49.313Z,100.00
2022-08-02T00:42:16.261Z,100.00
2022-08-02T00:44:43.337Z,100.00
2022-08-02T00:47:10.412Z,100.00
2022-08-02T00:49:37.752Z,100.00
2022-08-02T00:52:05.331Z,100.00
2022-08-02T00:54:32.181Z,100.00
2022-08-02T00:56:59.085Z,100.00
2022-08-02T00:59:25.994Z,100.00
2022-08-02T01:01:55.683Z,100.00
2022-08-02T01:04:30.728Z,100.00
2022-08-02T01:07:12.600Z,100.00
2022-08-02T01:09:46.844Z,100.00
2022-08-02T01:12:14.336Z,100.00
2022-08-02T01:14:48.375Z,100.00
2022-08-02T01:17:20.961Z,100.00
2022-08-02T01:20:18.808Z,100.00
2022-08-02T01:23:23.685Z,100.00
2022-08-02T01:26:08.838Z,100.00
2022-08-02T01:28:56.800Z,100.00
2022-08-02T01:31:38.968Z,100.00
2022-08-02T01:34:34.278Z,100.00
2022-08-02T01:37:07.006Z,100.00
2022-08-02T01:39:39.073Z,100.00
2022-08-02T01:42:06.720Z,100.00
2022-08-02T01:44:36.748Z,100.00
2022-08-02T01:47:09.433Z,100.00
2022-08-02T01:49:38.612Z,100.00
2022-08-02T01:52:21.800Z,100.00
2022-08-02T01:55:18.563Z,100.00
2022-08-02T01:58:03.286Z,100.00
2022-08-02T02:00:33.750Z,100.00
2022-08-02T02:03:02.412Z,100.00
2022-08-02T02:05:32.318Z,100.00
2022-08-02T02:08:05.988Z,100.00
2022-08-02T02:10:35.737Z,100.00
2022-08-02T02:13:06.788Z,100.00
2022-08-02T02:15:35.546Z,100.00
2022-08-02T02:18:12.652Z,100.00
2022-08-02T02:20:42.511Z,100.00
2022-08-02T02:23:10.558Z,100.00
2022-08-02T02:25:41.838Z,100.00
2022-08-02T02:28:22.378Z,100.00
2022-08-02T02:30:53.420Z,100.00
2022-08-02T02:33:27.718Z,100.00
2022-08-02T02:35:58.287Z,100.00
2022-08-02T02:38:30.696Z,100.00
2022-08-02T02:41:00.926Z,100.00
2022-08-02T02:43:31.161Z,100.00
2022-08-02T02:45:58.730Z,100.00
2022-08-02T02:48:27.112Z,100.00
2022-08-02T02:50:54.584Z,100.00
2022-08-02T02:53:23.084Z,100.00
2022-08-02T02:56:01.687Z,100.00
2022-08-02T02:58:31.254Z,100.00
2022-08-02T03:01:16.556Z,100.00
2022-08-02T03:03:45.236Z,100.00
2022-08-02T03:06:15.806Z,100.00
2022-08-02T03:08:43.512Z,100.00
2022-08-02T03:11:11.264Z,100.00
2022-08-02T03:13:39.262Z,100.00
2022-08-02T03:16:06.704Z,100.00
2022-08-02T03:18:40.564Z,100.00
2022-08-02T03:21:12.974Z,100.00
2022-08-02T03:23:42.379Z,100.00
2022-08-02T03:26:10.382Z,100.00
2022-08-02T03:28:37.434Z,100.00
2022-08-02T03:31:04.627Z,100.00
2022-08-02T03:33:32.428Z,100.00
2022-08-02T03:36:11.665Z,100.00
2022-08-02T03:38:39.332Z,100.00
2022-08-02T03:41:07.675Z,100.00
2022-08-02T03:43:36.805Z,100.00
2022-08-02T03:46:05.255Z,100.00
2022-08-02T03:48:33.846Z,100.00
2022-08-02T03:51:02.625Z,100.00
2022-08-02T03:53:30.232Z,100.00
2022-08-02T03:55:57.763Z,100.00
2022-08-02T03:58:24.900Z,100.00
2022-08-02T04:00:57.637Z,100.00
2022-08-02T04:03:27.935Z,100.00
2022-08-02T04:06:03.230Z,100.00
2022-08-02T04:08:35.527Z,100.00
2022-08-02T04:11:23.133Z,100.00
2022-08-02T04:13:50.415Z,100.00
2022-08-02T04:16:22.993Z,100.00
2022-08-02T04:18:58.425Z,100.00
2022-08-02T04:21:48.970Z,100.00
2022-08-02T04:24:18.635Z,100.00
2022-08-02T04:26:48.986Z,100.00
2022-08-02T04:29:18.718Z,100.00
2022-08-02T04:31:45.978Z,100.00
2022-08-02T04:34:15.486Z,100.00
2022-08-02T04:36:43.513Z,100.00
2022-08-02T04:39:10.963Z,100.00
2022-08-02T04:41:43.918Z,100.00
2022-08-02T04:44:11.905Z,100.00
2022-08-02T04:46:39.819Z,100.00
2022-08-02T04:49:06.899Z,100.00
2022-08-02T04:51:38.439Z,100.00
2022-08-02T04:54:09.996Z,100.00
2022-08-02T04:56:38.752Z,100.00
2022-08-02T04:59:06.592Z,100.00
2022-08-02T05:01:33.394Z,100.00
2022-08-02T05:04:00.320Z,100.00
2022-08-02T05:06:27.318Z,100.00
2022-08-02T05:08:54.273Z,100.00
2022-08-02T05:11:34.538Z,100.00
2022-08-02T05:14:05.853Z,100.00
2022-08-02T05:16:33.002Z,100.00
2022-08-02T05:19:01.310Z,100.00
2022-08-02T05:21:29.305Z,100.00
2022-08-02T05:23:56.111Z,100.00
2022-08-02T05:26:22.842Z,99.99
2022-08-02T05:28:49.845Z,98.79
2022-08-02T05:31:16.685Z,98.47
2022-08-02T05:33:43.451Z,98.54
2022-08-02T05:36:10.333Z,98.69
2022-08-02T05:38:37.966Z,97.72
2022-08-02T05:41:08.084Z,97.42
2022-08-02T05:43:34.894Z,97.42
2022-08-02T05:46:01.705Z,96.57
2022-08-02T05:48:31.978Z,96.34
2022-08-02T05:51:10.242Z,95.68
2022-08-02T05:53:45.316Z,94.14
2022-08-02T05:56:31.338Z,96.02
2022-08-02T05:59:18.526Z,93.78
2022-08-02T06:01:48.586Z,93.53
2022-08-02T06:04:25.192Z,93.16
2022-08-02T06:06:56.062Z,90.92
2022-08-02T06:09:26.618Z,91.97
2022-08-02T06:12:01.778Z,92.62
2022-08-02T06:14:33.022Z,89.59
2022-08-02T06:17:04.795Z,92.48
2022-08-02T06:19:46.906Z,92.02
2022-08-02T06:22:37.762Z,90.69
2022-08-02T06:25:05.789Z,90.97
2022-08-02T06:27:34.031Z,85.09
2022-08-02T06:30:02.452Z,85.29
2022-08-02T06:32:29.157Z,81.29
2022-08-02T06:34:56.667Z,82.30
2022-08-02T06:37:44.912Z,79.88
2022-08-02T06:40:27.978Z,78.26
2022-08-02T06:43:25.904Z,79.07
2022-08-02T06:45:52.794Z,79.11
2022-08-02T06:48:19.626Z,79.25
2022-08-02T06:50:46.511Z,79.13
2022-08-02T06:53:13.583Z,79.30
2022-08-02T06:55:43.815Z,77.13
2022-08-02T06:58:12.785Z,78.84
2022-08-02T07:00:40.953Z,78.34
2022-08-02T07:03:07.748Z,77.90
2022-08-02T07:05:35.071Z,78.30
2022-08-02T07:08:02.950Z,76.94
2022-08-02T07:10:29.769Z,75.73
2022-08-02T07:12:59.744Z,72.40
2022-08-02T07:15:27.150Z,74.68
2022-08-02T07:17:55.405Z,73.29
2022-08-02T07:20:22.179Z,71.21
2022-08-02T07:22:49.024Z,72.61
2022-08-02T07:25:16.267Z,68.41
2022-08-02T07:27:43.372Z,68.79
2022-08-02T07:30:10.758Z,70.81
2022-08-02T07:32:38.172Z,67.78
2022-08-02T07:35:07.523Z,66.95
2022-08-02T07:37:55.417Z,67.09
2022-08-02T07:40:24.397Z,65.64
2022-08-02T07:42:56.448Z,63.95
2022-08-02T07:45:25.402Z,59.64
2022-08-02T07:47:52.805Z,58.17
2022-08-02T07:50:21.150Z,58.08
2022-08-02T07:52:48.165Z,57.68
2022-08-02T07:55:17.931Z,58.75
2022-08-02T07:57:46.985Z,56.90
2022-08-02T08:00:16.418Z,56.89
2022-08-02T08:02:44.133Z,56.26
2022-08-02T08:05:12.116Z,55.62
2022-08-02T08:07:39.532Z,55.74
2022-08-02T08:10:07.627Z,54.21
2022-08-02T08:12:34.708Z,54.41
2022-08-02T08:15:01.553Z,52.79
2022-08-02T08:17:28.513Z,51.31
2022-08-02T08:19:55.451Z,50.60
2022-08-02T08:22:23.144Z,50.31
2022-08-02T08:24:50.375Z,50.96
2022-08-02T08:27:18.414Z,49.30
2022-08-02T08:29:46.471Z,49.17
2022-08-02T08:32:17.863Z,50.16
2022-08-02T08:34:49.178Z,50.24
2022-08-02T08:37:16.511Z,50.09
2022-08-02T08:39:57.065Z,50.56
2022-08-02T08:42:27.534Z,48.27
2022-08-02T08:44:56.699Z,49.04
2022-08-02T08:47:33.554Z,48.13
2022-08-02T08:50:06.883Z,46.49
2022-08-02T08:52:41.630Z,47.63
2022-08-02T08:55:13.945Z,47.41
2022-08-02T08:57:42.664Z,47.27
2022-08-02T09:00:13.576Z,46.71
2022-08-02T09:02:42.746Z,44.68
2022-08-02T09:05:15.743Z,43.48
2022-08-02T09:07:45.039Z,43.47
2022-08-02T09:10:41.271Z,44.06
2022-08-02T09:13:38.665Z,42.92
2022-08-02T09:16:12.138Z,43.33
2022-08-02T09:18:46.353Z,42.26
2022-08-02T09:21:17.104Z,43.05
2022-08-02T09:23:47.760Z,42.46
2022-08-02T09:26:19.318Z,40.40
2022-08-02T09:28:50.305Z,40.13
2022-08-02T09:31:22.921Z,39.98
2022-08-02T09:33:54.701Z,39.30
2022-08-02T09:36:22.374Z,38.66
2022-08-02T09:39:13.199Z,39.75
2022-08-02T09:41:42.258Z,40.25
2022-08-02T09:44:15.564Z,40.16
2022-08-02T09:46:46.906Z,39.72
2022-08-02T09:49:19.610Z,38.63
2022-08-02T09:51:49.724Z,38.95
2022-08-02T09:54:19.191Z,38.11
2022-08-02T09:56:51.824Z,38.52
2022-08-02T09:59:21.510Z,37.33
2022-08-02T10:01:51.707Z,35.96
2022-08-02T10:04:30.917Z,36.39
2022-08-02T10:07:00.019Z,35.77
2022-08-02T10:09:28.998Z,33.18
2022-08-02T10:11:56.899Z,32.44
2022-08-02T10:14:24.118Z,34.01
2022-08-02T10:16:53.547Z,33.14
2022-08-02T10:19:59.564Z,32.69
2022-08-02T10:22:13.716Z,31.88
2022-08-02T10:24:48.127Z,32.77
2022-08-02T10:27:20.348Z,33.04
2022-08-02T10:29:55.641Z,34.10
2022-08-02T10:32:39.923Z,35.00
2022-08-02T10:35:19.578Z,34.55
2022-08-02T10:38:07.977Z,35.98
2022-08-02T10:40:52.835Z,36.31
2022-08-02T10:43:31.727Z,34.69
2022-08-02T10:46:34.650Z,35.14
2022-08-02T10:49:01.488Z,34.09
2022-08-02T10:51:56.467Z,34.49
2022-08-02T10:54:47.856Z,35.38
2022-08-02T10:57:37.628Z,35.43
2022-08-02T11:00:20.906Z,36.10
2022-08-02T11:02:53.223Z,35.96
2022-08-02T11:05:42.250Z,35.07
2022-08-02T11:08:22.685Z,34.85
2022-08-02T11:10:49.693Z,32.84
2022-08-02T11:13:20.031Z,33.75
2022-08-02T11:16:11.265Z,33.05
2022-08-02T11:18:50.532Z,32.50
2022-08-02T11:21:25.435Z,32.37
2022-08-02T11:23:53.267Z,32.91
2022-08-02T11:26:29.284Z,32.94
2022-08-02T11:29:00.696Z,33.64
2022-08-02T11:31:28.522Z,33.47
2022-08-02T11:33:55.847Z,32.71
2022-08-02T11:36:24.678Z,31.79
2022-08-02T11:39:09.665Z,31.22
2022-08-02T11:41:45.867Z,30.99
2022-08-02T11:44:13.998Z,30.72
2022-08-02T11:46:41.120Z,30.86
2022-08-02T11:49:15.749Z,30.70
2022-08-02T11:51:59.620Z,31.76
2022-08-02T11:54:32.525Z,30.94
2022-08-02T11:57:20.343Z,31.49
2022-08-02T11:59:52.693Z,30.69
2022-08-02T12:02:27.057Z,30.15
2022-08-02T12:05:08.943Z,30.45
2022-08-02T12:07:46.144Z,31.93
2022-08-02T12:10:19.514Z,31.44
2022-08-02T12:12:54.283Z,30.21
2022-08-02T12:15:42.084Z,30.36
2022-08-02T12:18:29.459Z,30.09
2022-08-02T12:20:56.809Z,29.83
2022-08-02T12:23:24.661Z,30.16
2022-08-02T12:26:05.552Z,30.22
2022-08-02T12:28:41.091Z,30.80
2022-08-02T12:31:10.766Z,30.53
2022-08-02T12:33:51.260Z,30.64
2022-08-02T12:36:23.256Z,31.19
2022-08-02T12:38:58.371Z,30.61
2022-08-02T12:41:31.500Z,28.77
2022-08-02T12:44:00.039Z,28.05
2022-08-02T12:46:26.918Z,28.39
2022-08-02T12:49:15.212Z,28.61
2022-08-02T12:51:51.036Z,29.93
2022-08-02T12:54:38.969Z,29.96
2022-08-02T12:57:13.430Z,28.99
2022-08-02T12:59:42.183Z,29.55
2022-08-02T13:02:14.620Z,29.90
2022-08-02T13:04:50.036Z,30.56
2022-08-02T13:07:18.685Z,29.07
2022-08-02T13:09:46.890Z,26.60
2022-08-02T13:12:14.599Z,25.86
2022-08-02T13:14:42.739Z,24.31
2022-08-02T13:17:12.747Z,24.84
2022-08-02T13:19:40.959Z,25.30
2022-08-02T13:22:08.649Z,25.10
2022-08-02T13:24:40.617Z,25.30
2022-08-02T13:27:22.401Z,23.32
2022-08-02T13:29:50.381Z,22.81
2022-08-02T13:32:17.787Z,22.02
2022-08-02T13:34:44.824Z,23.45
2022-08-02T13:37:11.772Z,23.25
2022-08-02T13:39:38.834Z,25.33
2022-08-02T13:42:07.061Z,26.46
2022-08-02T13:44:34.878Z,26.00
2022-08-02T13:47:02.541Z,26.87
2022-08-02T13:49:51.627Z,26.96
2022-08-02T13:52:18.867Z,28.17
2022-08-02T13:54:45.966Z,27.57
2022-08-02T13:57:13.008Z,26.46
2022-08-02T13:59:57.799Z,26.63
2022-08-02T14:02:28.164Z,26.87
2022-08-02T14:04:55.343Z,26.00
2022-08-02T14:07:22.532Z,24.77
2022-08-02T14:09:49.388Z,22.95
2022-08-02T14:12:16.882Z,21.77
2022-08-02T14:14:44.014Z,21.54
2022-08-02T14:17:12.432Z,22.31
2022-08-02T14:19:40.025Z,20.89
2022-08-02T14:22:21.305Z,20.81
2022-08-02T14:24:48.411Z,20.44
2022-08-02T14:27:15.943Z,20.31
2022-08-02T14:29:42.864Z,21.36
2022-08-02T14:32:10.110Z,21.88
2022-08-02T14:34:37.229Z,21.87
2022-08-02T14:37:05.644Z,21.76
2022-08-02T14:39:43.207Z,21.60
2022-08-02T14:42:19.265Z,21.17
2022-08-02T14:44:46.013Z,21.09
2022-08-02T14:47:12.950Z,20.65
2022-08-02T14:49:42.311Z,19.87
2022-08-02T14:52:10.480Z,19.99
2022-08-02T14:54:37.416Z,21.45
2022-08-02T14:57:04.602Z,21.57
2022-08-02T14:59:31.585Z,23.31
2022-08-02T15:01:59.164Z,24.17
2022-08-02T15:04:26.422Z,25.44
2022-08-02T15:06:53.816Z,25.89
2022-08-02T15:09:21.726Z,26.09
2022-08-02T15:11:49.563Z,25.56
2022-08-02T15:14:20.443Z,23.37
2022-08-02T15:16:58.021Z,22.41
2022-08-02T15:19:56.750Z,21.05
2022-08-02T15:22:19.045Z,20.29
2022-08-02T15:24:47.937Z,20.62
2022-08-02T15:27:16.558Z,20.72
2022-08-02T15:29:45.050Z,20.32
2022-08-02T15:32:13.356Z,19.88
2022-08-02T15:34:40.760Z,20.28
2022-08-02T15:37:09.040Z,20.63
2022-08-02T15:39:36.185Z,21.92
2022-08-02T15:42:03.543Z,21.70
2022-08-02T15:44:30.430Z,20.65
2022-08-02T15:46:57.296Z,19.86
2022-08-02T15:49:25.290Z,20.57
2022-08-02T15:51:53.104Z,21.06
2022-08-02T15:54:20.159Z,20.59
2022-08-02T15:56:47.135Z,20.61
2022-08-02T15:59:14.228Z,20.62
2022-08-02T16:01:46.518Z,20.77
2022-08-02T16:04:14.806Z,21.65
2022-08-02T16:06:42.031Z,22.97
2022-08-02T16:09:09.143Z,24.30
2022-08-02T16:11:36.168Z,24.92
2022-08-02T16:14:02.901Z,25.35
2022-08-02T16:16:32.706Z,26.94
2022-08-02T16:19:47.082Z,28.70
2022-08-02T16:21:48.368Z,27.96
2022-08-02T16:24:15.088Z,27.15
2022-08-02T16:26:42.461Z,27.31
2022-08-02T16:29:09.626Z,26.24
2022-08-02T16:31:41.619Z,27.09
2022-08-02T16:34:09.594Z,27.27
2022-08-02T16:36:36.593Z,27.65
2022-08-02T16:39:03.810Z,27.85
2022-08-02T16:41:50.861Z,27.42
2022-08-02T16:44:17.478Z,28.34
2022-08-02T16:46:44.951Z,29.77
2022-08-02T16:49:12.986Z,30.19
2022-08-02T16:51:59.243Z,30.85
2022-08-02T16:54:26.564Z,33.05
2022-08-02T16:56:53.444Z,33.09
2022-08-02T16:59:20.206Z,34.11
2022-08-02T17:02:11.178Z,34.12
2022-08-02T17:04:39.080Z,34.12
2022-08-02T17:07:11.119Z,33.78
2022-08-02T17:10:03.900Z,33.86
2022-08-02T17:12:34.236Z,34.42
2022-08-02T17:15:08.930Z,34.84
2022-08-02T17:17:48.323Z,35.79
2022-08-02T17:20:15.386Z,36.51
2022-08-02T17:22:44.340Z,37.39
2022-08-02T17:25:13.597Z,37.36
2022-08-02T17:27:43.264Z,37.84
2022-08-02T17:30:11.507Z,38.63
2022-08-02T17:32:38.416Z,39.28
2022-08-02T17:35:06.956Z,39.47
2022-08-02T17:37:41.704Z,39.37
2022-08-02T17:40:09.799Z,40.74
2022-08-02T17:42:36.666Z,40.89
2022-08-02T17:45:16.257Z,41.66
2022-08-02T17:48:04.237Z,41.69
2022-08-02T17:50:32.665Z,42.39
2022-08-02T17:52:59.890Z,41.79
2022-08-02T17:55:26.968Z,42.64
2022-08-02T17:57:59.470Z,42.55
2022-08-02T18:00:35.077Z,43.54
2022-08-02T18:03:05.937Z,43.37
2022-08-02T18:05:55.045Z,44.38
2022-08-02T18:08:23.792Z,45.49
2022-08-02T18:10:52.924Z,45.50
2022-08-02T18:13:20.159Z,46.24
2022-08-02T18:15:47.739Z,46.65
2022-08-02T18:18:19.212Z,47.21
2022-08-02T18:20:57.303Z,45.73
2022-08-02T18:23:24.579Z,46.11
2022-08-02T18:25:55.172Z,45.81
2022-08-02T18:28:26.622Z,46.30
2022-08-02T18:30:53.992Z,46.31
2022-08-02T18:33:56.789Z,47.07
2022-08-02T18:36:10.773Z,46.38
2022-08-02T18:38:51.683Z,46.56
2022-08-02T18:41:19.254Z,47.32
2022-08-02T18:43:48.620Z,47.43
2022-08-02T18:46:17.315Z,47.54
2022-08-02T18:48:47.869Z,48.09
2022-08-02T18:51:18.997Z,49.39
2022-08-02T18:53:48.949Z,49.59
2022-08-02T18:56:19.723Z,49.28
2022-08-02T18:58:55.254Z,49.18
2022-08-02T19:01:33.453Z,50.45
2022-08-02T19:04:04.839Z,52.70
2022-08-02T19:06:32.464Z,53.25
2022-08-02T19:09:11.212Z,53.29
2022-08-02T19:11:47.426Z,54.74
2022-08-02T19:14:27.004Z,55.19
2022-08-02T19:16:54.570Z,55.75
2022-08-02T19:19:22.330Z,55.60
2022-08-02T19:22:17.352Z,56.54
2022-08-02T19:24:37.100Z,56.97
2022-08-02T19:27:09.023Z,56.60
2022-08-02T19:29:42.688Z,57.77
2022-08-02T19:32:40.134Z,58.54
2022-08-02T19:35:15.161Z,59.13
2022-08-02T19:37:51.124Z,58.81
2022-08-02T19:40:24.441Z,61.43
2022-08-02T19:43:05.313Z,61.65
2022-08-02T19:45:50.089Z,60.85
2022-08-02T19:48:23.418Z,62.36
2022-08-02T19:50:56.583Z,62.88
2022-08-02T19:56:20.360Z,64.33
2022-08-02T19:58:47.648Z,65.49
2022-08-02T20:01:16.861Z,66.18
2022-08-02T20:03:51.411Z,66.80
2022-08-02T20:06:20.279Z,67.41
2022-08-02T20:08:59.189Z,68.71
2022-08-02T20:11:29.197Z,67.69
2022-08-02T20:14:05.479Z,69.92
2022-08-02T20:16:37.529Z,69.13
2022-08-02T20:19:07.791Z,70.49
2022-08-02T20:21:37.632Z,70.02
2022-08-02T20:24:10.141Z,69.97
2022-08-02T20:26:47.612Z,70.93
2022-08-02T20:29:17.586Z,70.50
2022-08-02T20:32:04.547Z,71.48
2022-08-02T20:34:31.357Z,71.08
2022-08-02T20:37:00.607Z,72.30
2022-08-02T20:39:47.881Z,72.50
2022-08-02T20:42:23.697Z,73.21
2022-08-02T20:44:55.027Z,73.41
2022-08-02T20:47:28.421Z,74.26
2022-08-02T20:50:30.517Z,74.47
2022-08-02T20:53:03.136Z,75.94
2022-08-02T20:55:30.988Z,76.37
2022-08-02T20:58:01.103Z,76.71
2022-08-02T21:00:28.872Z,78.49
2022-08-02T21:02:55.739Z,78.91
2022-08-02T21:05:43.628Z,80.24
2022-08-02T21:08:14.198Z,80.52
2022-08-02T21:10:43.712Z,81.35
2022-08-02T21:13:18.842Z,81.65
2022-08-02T21:15:46.927Z,81.54
2022-08-02T21:18:14.595Z,82.15
2022-08-02T21:20:52.876Z,82.80
2022-08-02T21:23:20.053Z,83.38
2022-08-02T21:25:57.048Z,84.13
2022-08-02T21:28:35.050Z,84.34
2022-08-02T21:31:13.548Z,85.53
2022-08-02T21:33:56.790Z,85.83
2022-08-02T21:36:30.489Z,86.55
2022-08-02T21:38:58.384Z,86.86
2022-08-02T21:41:39.692Z,87.28
2022-08-02T21:44:12.234Z,87.13
2022-08-02T21:46:39.147Z,86.55
2022-08-02T21:49:06.072Z,86.83
2022-08-02T21:51:34.266Z,86.21
2022-08-02T21:54:18.281Z,87.28
2022-08-02T21:56:52.148Z,88.56
2022-08-02T22:02:11.632Z,88.76
2022-08-02T22:04:38.379Z,89.02
2022-08-02T22:07:05.192Z,89.13
2022-08-02T22:09:43.419Z,90.09
2022-08-02T22:12:18.319Z,90.98
2022-08-02T22:17:52.970Z,90.93
2022-08-02T22:20:21.483Z,92.02
2022-08-02T22:22:52.712Z,92.46
2022-08-02T22:25:26.766Z,92.57
2022-08-02T22:28:35.652Z,94.11
2022-08-02T22:30:52.811Z,94.87
2022-08-02T22:33:42.005Z,94.26
2022-08-02T22:36:13.369Z,95.52
2022-08-02T22:38:44.367Z,96.57
2022-08-02T22:41:13.553Z,96.87
2022-08-02T22:43:41.523Z,97.09
2022-08-02T22:46:09.129Z,97.57
2022-08-02T22:48:36.018Z,97.90
2022-08-02T22:51:08.199Z,98.71
2022-08-02T22:53:35.671Z,97.94
2022-08-02T22:56:04.317Z,98.37
2022-08-02T22:58:32.038Z,98.72
2022-08-02T22:59:03.937Z,89.23
2022-08-02T22:59:04.405Z,90.43
2022-08-02T22:59:07.275Z,63.58
2022-08-02T23:00:58.911Z,98.83
2022-08-02T23:03:25.832Z,98.45
2022-08-02T23:05:52.872Z,97.63
2022-08-02T23:08:19.963Z,96.87
2022-08-02T23:10:46.785Z,97.06
2022-08-02T23:13:13.793Z,96.94
2022-08-02T23:16:00.685Z,97.65
2022-08-02T23:18:47.004Z,97.33
2022-08-02T23:21:14.381Z,96.53
2022-08-02T23:24:01.795Z,96.37
2022-08-02T23:26:29.005Z,97.13
2022-08-02T23:28:56.139Z,96.97
2022-08-02T23:31:33.960Z,96.92
2022-08-02T23:34:06.005Z,96.80
2022-08-02T23:36:34.100Z,97.71
2022-08-02T23:39:01.090Z,97.94
2022-08-02T23:41:27.979Z,97.70
2022-08-02T23:44:12.489Z,98.53
2022-08-02T23:46:52.296Z,99.15
2022-08-02T23:49:25.618Z,100.00
2022-08-02T23:51:54.031Z,100.00
2022-08-02T23:54:24.264Z,100.00
2022-08-02T23:56:51.784Z,100.00
2022-08-02T23:59:18.648Z,100.00
